Weather at Sept-Îles/Lac des Rapides Water Aerodrome

Public forecast

Using degrees Celsius for public forecast. Weather courtesy of forecast.io.

Closest aviation weather report (METAR) to Sept-Îles/Lac des Rapides Water Aerodrome

Closest report is Sept-Îles Airport, 7.3 nm (13.6 km) SE.

2024/06/21 23:00 (retrieved 14 minutes ago)

CYZV 212300Z 32008KT 290V360 30SM FEW010 BKN110 22/04 A2999 RMK FU1AC7 FU TR SLP159 DENSITY ALT 1000FT

Closest aviation forecast (TAF) to Sept-Îles/Lac des Rapides Water Aerodrome

Closest forecast is Sept-Îles Airport, 7.3 nm (13.6 km) SE.

2024/06/21 18:42 (retrieved 5 hours ago)

TAF CYZV 211740Z 2118/2218 30012G22KT P6SM FEW060 SCT120 BECMG 2123/2201 30007KT BECMG 2213/2215 22010KT FM221500 22010KT P6SM BKN070 TEMPO 2215/2218 P6SM -SHRA RMK NXT FCST BY 220000Z